sensor_id;sensor_type;location;lat;lon;timestamp;P1;durP1;ratioP1;P2;durP2;ratioP2
54977;SDS011;40873;47.522;19.106;2023-09-07T00:00:50;6.85;;;3.90;;
54977;SDS011;40873;47.522;19.106;2023-09-07T00:03:35;6.15;;;3.88;;
54977;SDS011;40873;47.522;19.106;2023-09-07T00:06:08;6.57;;;4.00;;
54977;SDS011;40873;47.522;19.106;2023-09-07T00:08:36;6.68;;;3.60;;
54977;SDS011;40873;47.522;19.106;2023-09-07T00:11:03;5.90;;;4.00;;
54977;SDS011;40873;47.522;19.106;2023-09-07T00:13:34;10.02;;;3.67;;
54977;SDS011;40873;47.522;19.106;2023-09-07T00:16:04;5.47;;;4.25;;
54977;SDS011;40873;47.522;19.106;2023-09-07T00:18:36;5.78;;;3.45;;
54977;SDS011;40873;47.522;19.106;2023-09-07T00:21:03;5.85;;;3.65;;
54977;SDS011;40873;47.522;19.106;2023-09-07T00:23:30;6.00;;;3.90;;
54977;SDS011;40873;47.522;19.106;2023-09-07T00:25:57;5.93;;;3.58;;
54977;SDS011;40873;47.522;19.106;2023-09-07T00:28:24;8.32;;;4.20;;
54977;SDS011;40873;47.522;19.106;2023-09-07T00:30:54;5.47;;;4.10;;
54977;SDS011;40873;47.522;19.106;2023-09-07T00:33:21;8.10;;;3.63;;
54977;SDS011;40873;47.522;19.106;2023-09-07T00:35:50;6.05;;;3.45;;
54977;SDS011;40873;47.522;19.106;2023-09-07T00:38:19;5.45;;;3.53;;
54977;SDS011;40873;47.522;19.106;2023-09-07T00:40:46;5.97;;;3.70;;
54977;SDS011;40873;47.522;19.106;2023-09-07T00:43:13;5.80;;;3.30;;
54977;SDS011;40873;47.522;19.106;2023-09-07T00:45:41;6.90;;;3.97;;
54977;SDS011;40873;47.522;19.106;2023-09-07T00:48:09;8.35;;;3.63;;
54977;SDS011;40873;47.522;19.106;2023-09-07T00:50:43;5.47;;;3.65;;
54977;SDS011;40873;47.522;19.106;2023-09-07T00:53:11;7.28;;;3.63;;
54977;SDS011;40873;47.522;19.106;2023-09-07T00:55:41;10.73;;;3.67;;
54977;SDS011;40873;47.522;19.106;2023-09-07T00:58:08;10.32;;;4.00;;
54977;SDS011;40873;47.522;19.106;2023-09-07T01:00:38;7.10;;;3.92;;
54977;SDS011;40873;47.522;19.106;2023-09-07T01:03:07;7.55;;;3.28;;
54977;SDS011;40873;47.522;19.106;2023-09-07T01:05:41;6.47;;;4.18;;
54977;SDS011;40873;47.522;19.106;2023-09-07T01:09:06;7.20;;;3.60;;
54977;SDS011;40873;47.522;19.106;2023-09-07T01:11:18;5.20;;;4.03;;
54977;SDS011;40873;47.522;19.106;2023-09-07T01:13:53;6.72;;;3.60;;
54977;SDS011;40873;47.522;19.106;2023-09-07T01:16:21;5.30;;;3.47;;
54977;SDS011;40873;47.522;19.106;2023-09-07T01:18:48;6.47;;;4.40;;
54977;SDS011;40873;47.522;19.106;2023-09-07T01:21:19;7.25;;;3.55;;
54977;SDS011;40873;47.522;19.106;2023-09-07T01:23:48;5.75;;;3.78;;
54977;SDS011;40873;47.522;19.106;2023-09-07T01:26:20;7.03;;;4.05;;
54977;SDS011;40873;47.522;19.106;2023-09-07T01:28:47;7.28;;;4.05;;
54977;SDS011;40873;47.522;19.106;2023-09-07T01:31:14;6.00;;;4.05;;
54977;SDS011;40873;47.522;19.106;2023-09-07T01:33:45;5.80;;;4.13;;
54977;SDS011;40873;47.522;19.106;2023-09-07T01:36:12;6.03;;;3.40;;
54977;SDS011;40873;47.522;19.106;2023-09-07T01:38:44;6.95;;;4.03;;
54977;SDS011;40873;47.522;19.106;2023-09-07T01:41:12;6.72;;;4.10;;
54977;SDS011;40873;47.522;19.106;2023-09-07T01:43:42;6.53;;;3.80;;
54977;SDS011;40873;47.522;19.106;2023-09-07T01:46:13;6.10;;;4.30;;
54977;SDS011;40873;47.522;19.106;2023-09-07T01:48:40;6.60;;;4.15;;
54977;SDS011;40873;47.522;19.106;2023-09-07T01:51:09;6.70;;;4.38;;
54977;SDS011;40873;47.522;19.106;2023-09-07T01:53:36;6.97;;;4.20;;
54977;SDS011;40873;47.522;19.106;2023-09-07T01:56:03;7.32;;;4.50;;
54977;SDS011;40873;47.522;19.106;2023-09-07T01:58:31;6.60;;;4.43;;
54977;SDS011;40873;47.522;19.106;2023-09-07T02:01:01;5.70;;;3.92;;
54977;SDS011;40873;47.522;19.106;2023-09-07T02:03:33;6.72;;;4.03;;
54977;SDS011;40873;47.522;19.106;2023-09-07T02:06:03;9.07;;;5.20;;
54977;SDS011;40873;47.522;19.106;2023-09-07T02:08:30;9.13;;;4.95;;
54977;SDS011;40873;47.522;19.106;2023-09-07T02:10:57;11.00;;;5.10;;
54977;SDS011;40873;47.522;19.106;2023-09-07T02:13:25;13.85;;;5.22;;
54977;SDS011;40873;47.522;19.106;2023-09-07T02:15:52;10.57;;;5.32;;
54977;SDS011;40873;47.522;19.106;2023-09-07T02:18:19;10.23;;;4.90;;
54977;SDS011;40873;47.522;19.106;2023-09-07T02:20:46;7.55;;;5.05;;
54977;SDS011;40873;47.522;19.106;2023-09-07T02:23:13;12.60;;;5.90;;
54977;SDS011;40873;47.522;19.106;2023-09-07T02:25:43;13.02;;;5.70;;
54977;SDS011;40873;47.522;19.106;2023-09-07T02:28:13;11.60;;;5.30;;
54977;SDS011;40873;47.522;19.106;2023-09-07T02:30:40;11.25;;;4.57;;
54977;SDS011;40873;47.522;19.106;2023-09-07T02:33:07;19.52;;;5.63;;
54977;SDS011;40873;47.522;19.106;2023-09-07T02:35:37;10.05;;;4.85;;
54977;SDS011;40873;47.522;19.106;2023-09-07T02:38:05;10.13;;;4.95;;
54977;SDS011;40873;47.522;19.106;2023-09-07T02:40:41;13.55;;;5.45;;
54977;SDS011;40873;47.522;19.106;2023-09-07T02:43:10;7.88;;;4.03;;
54977;SDS011;40873;47.522;19.106;2023-09-07T02:45:38;11.57;;;4.45;;
54977;SDS011;40873;47.522;19.106;2023-09-07T02:48:08;12.40;;;4.80;;
54977;SDS011;40873;47.522;19.106;2023-09-07T02:50:37;12.02;;;4.57;;
54977;SDS011;40873;47.522;19.106;2023-09-07T02:53:05;8.57;;;4.93;;
54977;SDS011;40873;47.522;19.106;2023-09-07T02:55:35;7.82;;;4.75;;
54977;SDS011;40873;47.522;19.106;2023-09-07T02:58:02;9.50;;;5.28;;
54977;SDS011;40873;47.522;19.106;2023-09-07T03:00:30;8.38;;;4.93;;
54977;SDS011;40873;47.522;19.106;2023-09-07T03:02:57;7.72;;;4.72;;
54977;SDS011;40873;47.522;19.106;2023-09-07T03:05:26;8.88;;;4.60;;
54977;SDS011;40873;47.522;19.106;2023-09-07T03:07:54;6.22;;;4.22;;
54977;SDS011;40873;47.522;19.106;2023-09-07T03:10:24;7.63;;;4.45;;
54977;SDS011;40873;47.522;19.106;2023-09-07T03:12:51;6.28;;;4.55;;
54977;SDS011;40873;47.522;19.106;2023-09-07T03:15:19;6.60;;;4.47;;
54977;SDS011;40873;47.522;19.106;2023-09-07T03:17:46;6.70;;;4.15;;
54977;SDS011;40873;47.522;19.106;2023-09-07T03:20:14;7.32;;;4.40;;
54977;SDS011;40873;47.522;19.106;2023-09-07T03:22:44;5.82;;;4.35;;
54977;SDS011;40873;47.522;19.106;2023-09-07T03:25:17;6.22;;;4.25;;
54977;SDS011;40873;47.522;19.106;2023-09-07T03:27:44;7.00;;;4.25;;
54977;SDS011;40873;47.522;19.106;2023-09-07T03:30:11;6.95;;;4.18;;
54977;SDS011;40873;47.522;19.106;2023-09-07T03:32:40;7.03;;;4.32;;
54977;SDS011;40873;47.522;19.106;2023-09-07T03:35:07;7.25;;;4.43;;
54977;SDS011;40873;47.522;19.106;2023-09-07T03:37:38;9.63;;;4.88;;
54977;SDS011;40873;47.522;19.106;2023-09-07T03:40:05;7.45;;;4.63;;
54977;SDS011;40873;47.522;19.106;2023-09-07T03:42:32;7.78;;;5.13;;
54977;SDS011;40873;47.522;19.106;2023-09-07T03:45:02;7.55;;;4.55;;
54977;SDS011;40873;47.522;19.106;2023-09-07T03:47:30;7.63;;;4.32;;
54977;SDS011;40873;47.522;19.106;2023-09-07T03:50:00;8.10;;;4.22;;
54977;SDS011;40873;47.522;19.106;2023-09-07T03:52:27;9.15;;;5.00;;
54977;SDS011;40873;47.522;19.106;2023-09-07T03:54:54;7.53;;;4.18;;
54977;SDS011;40873;47.522;19.106;2023-09-07T03:57:23;6.90;;;4.03;;
54977;SDS011;40873;47.522;19.106;2023-09-07T03:59:51;6.35;;;4.32;;
54977;SDS011;40873;47.522;19.106;2023-09-07T04:02:22;7.35;;;4.82;;
54977;SDS011;40873;47.522;19.106;2023-09-07T04:04:50;7.97;;;4.88;;
54977;SDS011;40873;47.522;19.106;2023-09-07T04:07:18;7.15;;;4.90;;
54977;SDS011;40873;47.522;19.106;2023-09-07T04:09:45;8.13;;;5.10;;
54977;SDS011;40873;47.522;19.106;2023-09-07T04:12:12;10.38;;;5.28;;
54977;SDS011;40873;47.522;19.106;2023-09-07T04:14:40;8.52;;;4.68;;
54977;SDS011;40873;47.522;19.106;2023-09-07T04:17:08;9.13;;;5.18;;
54977;SDS011;40873;47.522;19.106;2023-09-07T04:19:35;8.68;;;4.53;;
54977;SDS011;40873;47.522;19.106;2023-09-07T04:22:03;8.73;;;5.43;;
54977;SDS011;40873;47.522;19.106;2023-09-07T04:24:30;8.85;;;5.22;;
54977;SDS011;40873;47.522;19.106;2023-09-07T04:27:01;8.32;;;4.95;;
54977;SDS011;40873;47.522;19.106;2023-09-07T04:29:28;10.68;;;5.82;;
54977;SDS011;40873;47.522;19.106;2023-09-07T04:31:58;12.85;;;5.82;;
54977;SDS011;40873;47.522;19.106;2023-09-07T04:34:27;9.23;;;6.25;;
54977;SDS011;40873;47.522;19.106;2023-09-07T04:36:54;9.63;;;6.03;;
54977;SDS011;40873;47.522;19.106;2023-09-07T04:39:21;9.68;;;6.22;;
54977;SDS011;40873;47.522;19.106;2023-09-07T04:41:48;9.63;;;5.40;;
54977;SDS011;40873;47.522;19.106;2023-09-07T04:44:15;8.93;;;5.80;;
54977;SDS011;40873;47.522;19.106;2023-09-07T04:46:42;11.85;;;5.43;;
54977;SDS011;40873;47.522;19.106;2023-09-07T04:49:12;11.30;;;6.07;;
54977;SDS011;40873;47.522;19.106;2023-09-07T04:51:39;8.73;;;5.63;;
54977;SDS011;40873;47.522;19.106;2023-09-07T04:54:06;10.40;;;5.60;;
54977;SDS011;40873;47.522;19.106;2023-09-07T04:56:36;9.25;;;5.60;;
54977;SDS011;40873;47.522;19.106;2023-09-07T04:59:04;8.40;;;4.63;;
54977;SDS011;40873;47.522;19.106;2023-09-07T05:01:31;7.63;;;5.20;;
54977;SDS011;40873;47.522;19.106;2023-09-07T05:03:59;11.10;;;5.53;;
54977;SDS011;40873;47.522;19.106;2023-09-07T05:06:26;13.07;;;6.10;;
54977;SDS011;40873;47.522;19.106;2023-09-07T05:08:53;12.57;;;6.10;;
54977;SDS011;40873;47.522;19.106;2023-09-07T05:11:20;15.82;;;8.07;;
54977;SDS011;40873;47.522;19.106;2023-09-07T05:13:47;11.38;;;6.45;;
54977;SDS011;40873;47.522;19.106;2023-09-07T05:16:14;9.90;;;6.25;;
54977;SDS011;40873;47.522;19.106;2023-09-07T05:18:41;9.90;;;5.93;;
54977;SDS011;40873;47.522;19.106;2023-09-07T05:21:13;9.05;;;5.25;;
54977;SDS011;40873;47.522;19.106;2023-09-07T05:23:44;12.10;;;6.07;;
54977;SDS011;40873;47.522;19.106;2023-09-07T05:26:13;10.30;;;5.93;;
54977;SDS011;40873;47.522;19.106;2023-09-07T05:28:40;10.57;;;6.13;;
54977;SDS011;40873;47.522;19.106;2023-09-07T05:31:14;11.00;;;6.32;;
54977;SDS011;40873;47.522;19.106;2023-09-07T05:33:41;11.35;;;5.88;;
54977;SDS011;40873;47.522;19.106;2023-09-07T05:36:08;8.35;;;5.97;;
54977;SDS011;40873;47.522;19.106;2023-09-07T05:38:35;10.65;;;5.38;;
54977;SDS011;40873;47.522;19.106;2023-09-07T05:41:03;11.02;;;5.32;;
54977;SDS011;40873;47.522;19.106;2023-09-07T05:43:30;8.82;;;5.65;;
54977;SDS011;40873;47.522;19.106;2023-09-07T05:45:58;6.35;;;4.70;;
54977;SDS011;40873;47.522;19.106;2023-09-07T05:48:26;7.25;;;5.20;;
54977;SDS011;40873;47.522;19.106;2023-09-07T05:50:57;8.43;;;5.22;;
54977;SDS011;40873;47.522;19.106;2023-09-07T05:53:27;7.13;;;4.85;;
54977;SDS011;40873;47.522;19.106;2023-09-07T05:55:57;7.28;;;4.72;;
54977;SDS011;40873;47.522;19.106;2023-09-07T05:58:24;8.75;;;4.40;;
54977;SDS011;40873;47.522;19.106;2023-09-07T06:00:51;13.73;;;6.63;;
54977;SDS011;40873;47.522;19.106;2023-09-07T06:03:18;6.35;;;4.00;;
54977;SDS011;40873;47.522;19.106;2023-09-07T06:05:45;13.38;;;5.50;;
54977;SDS011;40873;47.522;19.106;2023-09-07T06:08:12;7.88;;;4.45;;
54977;SDS011;40873;47.522;19.106;2023-09-07T06:10:39;13.40;;;4.32;;
54977;SDS011;40873;47.522;19.106;2023-09-07T06:13:06;10.55;;;4.85;;
54977;SDS011;40873;47.522;19.106;2023-09-07T06:15:34;10.40;;;4.72;;
54977;SDS011;40873;47.522;19.106;2023-09-07T06:18:01;9.35;;;4.88;;
54977;SDS011;40873;47.522;19.106;2023-09-07T06:20:31;10.40;;;4.00;;
54977;SDS011;40873;47.522;19.106;2023-09-07T06:22:58;10.98;;;4.22;;
54977;SDS011;40873;47.522;19.106;2023-09-07T06:25:25;12.45;;;4.35;;
54977;SDS011;40873;47.522;19.106;2023-09-07T06:27:53;8.63;;;4.75;;
54977;SDS011;40873;47.522;19.106;2023-09-07T06:30:21;11.18;;;4.78;;
54977;SDS011;40873;47.522;19.106;2023-09-07T06:32:48;11.43;;;4.90;;
54977;SDS011;40873;47.522;19.106;2023-09-07T06:35:19;10.68;;;4.40;;
54977;SDS011;40873;47.522;19.106;2023-09-07T06:37:46;10.27;;;4.95;;
54977;SDS011;40873;47.522;19.106;2023-09-07T06:40:13;9.30;;;4.72;;
54977;SDS011;40873;47.522;19.106;2023-09-07T06:42:42;10.10;;;4.97;;
54977;SDS011;40873;47.522;19.106;2023-09-07T06:45:09;11.10;;;4.97;;
54977;SDS011;40873;47.522;19.106;2023-09-07T06:47:38;9.93;;;4.80;;
54977;SDS011;40873;47.522;19.106;2023-09-07T06:50:07;9.95;;;4.85;;
54977;SDS011;40873;47.522;19.106;2023-09-07T06:52:34;9.95;;;4.80;;
54977;SDS011;40873;47.522;19.106;2023-09-07T06:55:01;10.93;;;4.95;;
54977;SDS011;40873;47.522;19.106;2023-09-07T06:57:28;10.65;;;5.13;;
54977;SDS011;40873;47.522;19.106;2023-09-07T06:59:56;9.85;;;4.70;;
54977;SDS011;40873;47.522;19.106;2023-09-07T07:02:23;10.73;;;5.07;;
54977;SDS011;40873;47.522;19.106;2023-09-07T07:04:51;11.90;;;4.97;;
54977;SDS011;40873;47.522;19.106;2023-09-07T07:07:18;11.43;;;3.63;;
54977;SDS011;40873;47.522;19.106;2023-09-07T07:09:46;6.65;;;3.65;;
54977;SDS011;40873;47.522;19.106;2023-09-07T07:12:13;9.52;;;4.45;;
54977;SDS011;40873;47.522;19.106;2023-09-07T07:14:40;7.00;;;4.03;;
54977;SDS011;40873;47.522;19.106;2023-09-07T07:17:08;7.18;;;3.78;;
54977;SDS011;40873;47.522;19.106;2023-09-07T07:19:35;14.13;;;6.68;;
54977;SDS011;40873;47.522;19.106;2023-09-07T07:22:02;13.00;;;4.88;;
54977;SDS011;40873;47.522;19.106;2023-09-07T07:24:30;9.65;;;4.00;;
54977;SDS011;40873;47.522;19.106;2023-09-07T07:26:56;12.27;;;5.13;;
54977;SDS011;40873;47.522;19.106;2023-09-07T07:29:27;8.15;;;4.05;;
54977;SDS011;40873;47.522;19.106;2023-09-07T07:31:57;8.40;;;4.05;;
54977;SDS011;40873;47.522;19.106;2023-09-07T07:34:24;11.43;;;3.95;;
54977;SDS011;40873;47.522;19.106;2023-09-07T07:36:52;7.18;;;4.20;;
54977;SDS011;40873;47.522;19.106;2023-09-07T07:39:19;11.48;;;4.13;;
54977;SDS011;40873;47.522;19.106;2023-09-07T07:41:46;6.95;;;3.85;;
54977;SDS011;40873;47.522;19.106;2023-09-07T07:44:13;9.13;;;4.00;;
54977;SDS011;40873;47.522;19.106;2023-09-07T07:46:39;7.32;;;4.00;;
54977;SDS011;40873;47.522;19.106;2023-09-07T07:49:07;9.38;;;4.22;;
54977;SDS011;40873;47.522;19.106;2023-09-07T07:51:34;10.73;;;4.20;;
54977;SDS011;40873;47.522;19.106;2023-09-07T07:54:01;8.13;;;3.92;;
54977;SDS011;40873;47.522;19.106;2023-09-07T07:56:28;7.78;;;4.10;;
54977;SDS011;40873;47.522;19.106;2023-09-07T07:58:59;9.70;;;4.15;;
54977;SDS011;40873;47.522;19.106;2023-09-07T08:01:25;10.27;;;4.53;;
54977;SDS011;40873;47.522;19.106;2023-09-07T08:03:54;5.15;;;3.30;;
54977;SDS011;40873;47.522;19.106;2023-09-07T08:06:21;9.18;;;3.95;;
54977;SDS011;40873;47.522;19.106;2023-09-07T08:08:48;6.20;;;3.72;;
54977;SDS011;40873;47.522;19.106;2023-09-07T08:11:15;5.70;;;3.03;;
54977;SDS011;40873;47.522;19.106;2023-09-07T08:13:43;15.07;;;4.35;;
54977;SDS011;40873;47.522;19.106;2023-09-07T08:16:13;7.43;;;3.60;;
54977;SDS011;40873;47.522;19.106;2023-09-07T08:18:40;6.38;;;3.88;;
54977;SDS011;40873;47.522;19.106;2023-09-07T08:21:08;7.30;;;3.60;;
54977;SDS011;40873;47.522;19.106;2023-09-07T08:23:36;5.00;;;3.20;;
54977;SDS011;40873;47.522;19.106;2023-09-07T08:26:03;6.88;;;3.63;;
54977;SDS011;40873;47.522;19.106;2023-09-07T08:28:32;10.40;;;4.20;;
54977;SDS011;40873;47.522;19.106;2023-09-07T08:31:00;6.00;;;4.43;;
54977;SDS011;40873;47.522;19.106;2023-09-07T08:33:27;7.85;;;3.35;;
54977;SDS011;40873;47.522;19.106;2023-09-07T08:36:02;9.60;;;3.63;;
54977;SDS011;40873;47.522;19.106;2023-09-07T08:38:30;6.65;;;3.75;;
54977;SDS011;40873;47.522;19.106;2023-09-07T08:41:00;7.20;;;3.75;;
54977;SDS011;40873;47.522;19.106;2023-09-07T08:43:35;5.53;;;3.65;;
54977;SDS011;40873;47.522;19.106;2023-09-07T08:46:17;6.00;;;3.50;;
54977;SDS011;40873;47.522;19.106;2023-09-07T08:48:48;6.38;;;4.00;;
54977;SDS011;40873;47.522;19.106;2023-09-07T08:51:17;6.88;;;3.95;;
54977;SDS011;40873;47.522;19.106;2023-09-07T08:53:46;4.95;;;3.50;;
54977;SDS011;40873;47.522;19.106;2023-09-07T08:56:13;6.75;;;3.72;;
54977;SDS011;40873;47.522;19.106;2023-09-07T08:58:42;5.47;;;3.47;;
54977;SDS011;40873;47.522;19.106;2023-09-07T09:01:12;6.50;;;3.67;;
54977;SDS011;40873;47.522;19.106;2023-09-07T09:03:43;6.25;;;3.83;;
54977;SDS011;40873;47.522;19.106;2023-09-07T09:06:10;4.85;;;2.95;;
54977;SDS011;40873;47.522;19.106;2023-09-07T09:08:52;7.68;;;3.42;;
54977;SDS011;40873;47.522;19.106;2023-09-07T09:11:21;6.82;;;3.47;;
54977;SDS011;40873;47.522;19.106;2023-09-07T09:13:50;7.93;;;3.80;;
54977;SDS011;40873;47.522;19.106;2023-09-07T09:16:20;6.25;;;3.55;;
54977;SDS011;40873;47.522;19.106;2023-09-07T09:18:52;6.57;;;3.50;;
54977;SDS011;40873;47.522;19.106;2023-09-07T09:21:26;6.63;;;3.20;;
54977;SDS011;40873;47.522;19.106;2023-09-07T09:23:55;5.82;;;3.70;;
54977;SDS011;40873;47.522;19.106;2023-09-07T09:26:23;6.35;;;3.65;;
54977;SDS011;40873;47.522;19.106;2023-09-07T09:28:55;6.43;;;3.45;;
54977;SDS011;40873;47.522;19.106;2023-09-07T09:31:23;6.10;;;3.53;;
54977;SDS011;40873;47.522;19.106;2023-09-07T09:33:51;6.90;;;3.45;;
54977;SDS011;40873;47.522;19.106;2023-09-07T09:36:19;4.22;;;2.80;;
54977;SDS011;40873;47.522;19.106;2023-09-07T09:38:50;5.05;;;3.35;;
54977;SDS011;40873;47.522;19.106;2023-09-07T09:41:20;4.88;;;2.88;;
54977;SDS011;40873;47.522;19.106;2023-09-07T09:43:48;5.70;;;3.10;;
54977;SDS011;40873;47.522;19.106;2023-09-07T09:46:19;4.70;;;3.13;;
54977;SDS011;40873;47.522;19.106;2023-09-07T09:48:46;6.38;;;3.20;;
54977;SDS011;40873;47.522;19.106;2023-09-07T09:51:14;6.63;;;3.05;;
54977;SDS011;40873;47.522;19.106;2023-09-07T09:53:44;5.20;;;3.17;;
54977;SDS011;40873;47.522;19.106;2023-09-07T09:56:12;5.63;;;3.20;;
54977;SDS011;40873;47.522;19.106;2023-09-07T09:58:39;5.82;;;3.05;;
54977;SDS011;40873;47.522;19.106;2023-09-07T10:01:07;4.97;;;3.15;;
54977;SDS011;40873;47.522;19.106;2023-09-07T10:03:40;8.95;;;2.90;;
54977;SDS011;40873;47.522;19.106;2023-09-07T10:06:23;5.40;;;3.42;;
54977;SDS011;40873;47.522;19.106;2023-09-07T10:08:57;5.47;;;3.28;;
54977;SDS011;40873;47.522;19.106;2023-09-07T10:11:26;10.25;;;2.80;;
54977;SDS011;40873;47.522;19.106;2023-09-07T10:14:02;6.65;;;2.83;;
54977;SDS011;40873;47.522;19.106;2023-09-07T10:19:23;4.47;;;3.00;;
54977;SDS011;40873;47.522;19.106;2023-09-07T10:21:53;6.85;;;3.00;;
54977;SDS011;40873;47.522;19.106;2023-09-07T10:24:30;4.78;;;2.80;;
54977;SDS011;40873;47.522;19.106;2023-09-07T10:27:06;5.65;;;3.10;;
54977;SDS011;40873;47.522;19.106;2023-09-07T10:32:21;7.35;;;3.20;;
54977;SDS011;40873;47.522;19.106;2023-09-07T10:34:50;6.38;;;2.60;;
54977;SDS011;40873;47.522;19.106;2023-09-07T10:37:18;6.13;;;3.42;;
54977;SDS011;40873;47.522;19.106;2023-09-07T10:39:46;5.85;;;3.08;;
54977;SDS011;40873;47.522;19.106;2023-09-07T10:42:22;6.35;;;2.40;;
54977;SDS011;40873;47.522;19.106;2023-09-07T10:44:53;5.00;;;2.95;;
54977;SDS011;40873;47.522;19.106;2023-09-07T10:47:21;5.85;;;3.10;;
54977;SDS011;40873;47.522;19.106;2023-09-07T10:49:48;6.07;;;2.55;;
54977;SDS011;40873;47.522;19.106;2023-09-07T10:52:16;5.03;;;2.85;;
54977;SDS011;40873;47.522;19.106;2023-09-07T10:54:55;4.47;;;2.67;;
54977;SDS011;40873;47.522;19.106;2023-09-07T10:57:23;4.75;;;2.95;;
54977;SDS011;40873;47.522;19.106;2023-09-07T10:59:49;9.43;;;3.40;;
54977;SDS011;40873;47.522;19.106;2023-09-07T11:02:17;4.07;;;3.00;;
54977;SDS011;40873;47.522;19.106;2023-09-07T11:04:44;9.13;;;3.42;;
54977;SDS011;40873;47.522;19.106;2023-09-07T11:07:11;5.38;;;2.55;;
54977;SDS011;40873;47.522;19.106;2023-09-07T11:09:40;5.03;;;3.45;;
54977;SDS011;40873;47.522;19.106;2023-09-07T11:12:13;5.63;;;3.03;;
54977;SDS011;40873;47.522;19.106;2023-09-07T11:14:43;5.35;;;3.10;;
54977;SDS011;40873;47.522;19.106;2023-09-07T11:17:15;5.95;;;3.28;;
54977;SDS011;40873;47.522;19.106;2023-09-07T11:19:43;7.55;;;2.97;;
54977;SDS011;40873;47.522;19.106;2023-09-07T11:22:10;5.95;;;3.00;;
54977;SDS011;40873;47.522;19.106;2023-09-07T11:24:38;6.50;;;2.78;;
54977;SDS011;40873;47.522;19.106;2023-09-07T11:27:08;5.68;;;2.92;;
54977;SDS011;40873;47.522;19.106;2023-09-07T11:29:35;4.25;;;2.70;;
54977;SDS011;40873;47.522;19.106;2023-09-07T11:32:09;6.05;;;3.03;;
54977;SDS011;40873;47.522;19.106;2023-09-07T11:34:47;7.15;;;3.28;;
54977;SDS011;40873;47.522;19.106;2023-09-07T11:37:23;4.43;;;2.87;;
54977;SDS011;40873;47.522;19.106;2023-09-07T11:39:50;6.88;;;3.33;;
54977;SDS011;40873;47.522;19.106;2023-09-07T11:42:22;5.93;;;3.33;;
54977;SDS011;40873;47.522;19.106;2023-09-07T11:44:49;4.78;;;3.45;;
54977;SDS011;40873;47.522;19.106;2023-09-07T11:47:16;7.45;;;3.28;;
54977;SDS011;40873;47.522;19.106;2023-09-07T11:49:43;5.35;;;2.92;;
54977;SDS011;40873;47.522;19.106;2023-09-07T11:52:10;7.85;;;3.25;;
54977;SDS011;40873;47.522;19.106;2023-09-07T11:54:37;5.72;;;2.78;;
54977;SDS011;40873;47.522;19.106;2023-09-07T11:57:04;5.57;;;3.10;;
54977;SDS011;40873;47.522;19.106;2023-09-07T11:59:32;6.03;;;3.30;;
54977;SDS011;40873;47.522;19.106;2023-09-07T12:02:16;5.70;;;2.92;;
54977;SDS011;40873;47.522;19.106;2023-09-07T12:04:44;5.93;;;2.80;;
54977;SDS011;40873;47.522;19.106;2023-09-07T12:07:11;6.18;;;2.95;;
54977;SDS011;40873;47.522;19.106;2023-09-07T12:09:38;4.15;;;2.60;;
54977;SDS011;40873;47.522;19.106;2023-09-07T12:12:05;4.43;;;3.05;;
54977;SDS011;40873;47.522;19.106;2023-09-07T12:14:32;5.50;;;3.30;;
54977;SDS011;40873;47.522;19.106;2023-09-07T12:17:02;6.05;;;3.35;;
54977;SDS011;40873;47.522;19.106;2023-09-07T12:19:30;5.85;;;3.00;;
54977;SDS011;40873;47.522;19.106;2023-09-07T12:22:00;5.30;;;3.08;;
54977;SDS011;40873;47.522;19.106;2023-09-07T12:24:28;4.63;;;2.90;;
54977;SDS011;40873;47.522;19.106;2023-09-07T12:26:55;5.20;;;3.03;;
54977;SDS011;40873;47.522;19.106;2023-09-07T12:29:22;3.65;;;3.05;;
54977;SDS011;40873;47.522;19.106;2023-09-07T12:31:50;5.78;;;3.03;;
54977;SDS011;40873;47.522;19.106;2023-09-07T12:34:17;4.93;;;3.10;;
54977;SDS011;40873;47.522;19.106;2023-09-07T12:36:47;5.90;;;2.92;;
54977;SDS011;40873;47.522;19.106;2023-09-07T12:39:15;6.10;;;2.95;;
54977;SDS011;40873;47.522;19.106;2023-09-07T12:41:42;5.35;;;3.53;;
54977;SDS011;40873;47.522;19.106;2023-09-07T12:44:09;5.88;;;3.53;;
54977;SDS011;40873;47.522;19.106;2023-09-07T12:46:36;6.35;;;3.08;;
54977;SDS011;40873;47.522;19.106;2023-09-07T12:49:03;4.03;;;3.05;;
54977;SDS011;40873;47.522;19.106;2023-09-07T12:51:34;4.90;;;2.90;;
54977;SDS011;40873;47.522;19.106;2023-09-07T12:54:00;4.95;;;3.28;;
54977;SDS011;40873;47.522;19.106;2023-09-07T12:56:28;8.32;;;3.35;;
54977;SDS011;40873;47.522;19.106;2023-09-07T12:58:55;4.97;;;3.03;;
54977;SDS011;40873;47.522;19.106;2023-09-07T13:01:26;6.53;;;3.00;;
54977;SDS011;40873;47.522;19.106;2023-09-07T13:03:53;6.32;;;3.40;;
54977;SDS011;40873;47.522;19.106;2023-09-07T13:06:20;10.07;;;3.50;;
54977;SDS011;40873;47.522;19.106;2023-09-07T13:08:47;5.90;;;3.28;;
54977;SDS011;40873;47.522;19.106;2023-09-07T13:11:14;4.47;;;3.22;;
54977;SDS011;40873;47.522;19.106;2023-09-07T13:13:41;9.23;;;3.90;;
54977;SDS011;40873;47.522;19.106;2023-09-07T13:16:11;5.13;;;2.95;;
54977;SDS011;40873;47.522;19.106;2023-09-07T13:18:40;5.20;;;2.83;;
54977;SDS011;40873;47.522;19.106;2023-09-07T13:21:10;5.72;;;3.05;;
54977;SDS011;40873;47.522;19.106;2023-09-07T13:23:37;5.85;;;2.80;;
54977;SDS011;40873;47.522;19.106;2023-09-07T13:26:06;4.00;;;2.95;;
54977;SDS011;40873;47.522;19.106;2023-09-07T13:28:33;5.70;;;2.90;;
54977;SDS011;40873;47.522;19.106;2023-09-07T13:31:00;8.82;;;3.65;;
54977;SDS011;40873;47.522;19.106;2023-09-07T13:33:27;5.57;;;3.30;;
54977;SDS011;40873;47.522;19.106;2023-09-07T13:35:57;5.72;;;3.00;;
54977;SDS011;40873;47.522;19.106;2023-09-07T13:38:27;3.78;;;2.90;;
54977;SDS011;40873;47.522;19.106;2023-09-07T13:40:55;6.88;;;2.90;;
54977;SDS011;40873;47.522;19.106;2023-09-07T13:43:21;4.28;;;2.88;;
54977;SDS011;40873;47.522;19.106;2023-09-07T13:45:48;7.13;;;3.38;;
54977;SDS011;40873;47.522;19.106;2023-09-07T13:48:16;4.85;;;3.30;;
54977;SDS011;40873;47.522;19.106;2023-09-07T13:50:46;5.35;;;2.95;;
54977;SDS011;40873;47.522;19.106;2023-09-07T13:53:14;5.57;;;3.38;;
54977;SDS011;40873;47.522;19.106;2023-09-07T13:55:41;3.88;;;2.95;;
54977;SDS011;40873;47.522;19.106;2023-09-07T13:58:11;4.85;;;2.80;;
54977;SDS011;40873;47.522;19.106;2023-09-07T14:00:38;4.40;;;2.90;;
54977;SDS011;40873;47.522;19.106;2023-09-07T14:03:07;4.47;;;2.90;;
54977;SDS011;40873;47.522;19.106;2023-09-07T14:05:34;4.10;;;3.28;;
54977;SDS011;40873;47.522;19.106;2023-09-07T14:08:05;3.72;;;2.97;;
54977;SDS011;40873;47.522;19.106;2023-09-07T14:10:33;5.45;;;3.00;;
54977;SDS011;40873;47.522;19.106;2023-09-07T14:13:00;4.00;;;2.88;;
54977;SDS011;40873;47.522;19.106;2023-09-07T14:15:27;4.80;;;3.53;;
54977;SDS011;40873;47.522;19.106;2023-09-07T14:17:56;5.70;;;3.20;;
54977;SDS011;40873;47.522;19.106;2023-09-07T14:20:26;5.50;;;2.88;;
54977;SDS011;40873;47.522;19.106;2023-09-07T14:22:53;4.00;;;3.13;;
54977;SDS011;40873;47.522;19.106;2023-09-07T14:25:23;4.50;;;3.00;;
54977;SDS011;40873;47.522;19.106;2023-09-07T14:27:50;4.95;;;3.65;;
54977;SDS011;40873;47.522;19.106;2023-09-07T14:30:17;5.78;;;3.38;;
54977;SDS011;40873;47.522;19.106;2023-09-07T14:32:44;7.82;;;3.28;;
54977;SDS011;40873;47.522;19.106;2023-09-07T14:35:15;4.80;;;3.20;;
54977;SDS011;40873;47.522;19.106;2023-09-07T14:37:46;4.05;;;3.53;;
54977;SDS011;40873;47.522;19.106;2023-09-07T14:40:13;9.23;;;3.10;;
54977;SDS011;40873;47.522;19.106;2023-09-07T14:42:40;4.68;;;2.85;;
54977;SDS011;40873;47.522;19.106;2023-09-07T14:45:08;4.28;;;3.42;;